Time;durP1;ratioP1;P1;durP2;ratioP2;P2;SDS_P1;SDS_P2;PMS_P1;PMS_P2;Temp;Humidity;BMP_temperature;BMP_pressure;BME280_temperature;BME280_humidity;BME280_pressure;Samples;Min_cycle;Max_cycle;Signal;HPM_P1;HPM_P2
2022/12/10 00:00:36;;;;;;;0.50;0.40;;;0.40;99.90;;;;;;5052149;28;20277;-78
2022/12/10 00:03:03;;;;;;;0.50;0.40;;;0.40;99.90;;;;;;5051404;28;20232;-79
2022/12/10 00:05:30;;;;;;;0.50;0.40;;;0.40;99.90;;;;;;5051612;28;20304;-79
2022/12/10 00:07:56;;;;;;;0.50;0.40;;;0.30;99.90;;;;;;5052716;28;20196;-77
2022/12/10 00:10:23;;;;;;;0.50;0.40;;;0.30;99.90;;;;;;5053229;28;20529;-79
2022/12/10 00:12:52;;;;;;;0.50;0.40;;;0.30;99.90;;;;;;5052970;28;20201;-78
2022/12/10 00:15:18;;;;;;;2.80;2.60;;;0.20;99.90;;;;;;5052217;28;20305;-79
2022/12/10 00:17:45;;;;;;;0.50;0.40;;;0.30;99.90;;;;;;5053061;28;20709;-81
2022/12/10 00:20:12;;;;;;;0.68;0.68;;;0.30;99.90;;;;;;5051324;28;20285;-78
2022/12/10 00:22:39;;;;;;;0.50;0.40;;;0.30;99.90;;;;;;5053193;28;20246;-79
2022/12/10 00:25:06;;;;;;;0.50;0.40;;;0.30;99.90;;;;;;5052053;28;20209;-80
2022/12/10 00:27:33;;;;;;;0.50;0.40;;;0.30;99.90;;;;;;5052547;28;20200;-77
2022/12/10 00:30:01;;;;;;;0.50;0.40;;;0.20;99.90;;;;;;5052541;28;20382;-77
2022/12/10 00:32:28;;;;;;;2.15;2.05;;;0.10;99.90;;;;;;5052093;28;20695;-78
2022/12/10 00:34:55;;;;;;;0.50;0.40;;;0.10;99.90;;;;;;5051317;28;20308;-79
2022/12/10 00:37:22;;;;;;;0.50;0.50;;;0.00;99.90;;;;;;5052579;28;20220;-78
2022/12/10 00:39:48;;;;;;;0.60;0.60;;;-0.10;99.90;;;;;;5050318;28;20201;-79
2022/12/10 00:42:15;;;;;;;0.50;0.40;;;-0.10;99.90;;;;;;5052311;28;20190;-79
2022/12/10 00:44:42;;;;;;;3.90;3.70;;;-0.20;99.90;;;;;;5051021;28;20215;-79
2022/12/10 00:47:10;;;;;;;7.47;7.07;;;-0.20;99.90;;;;;;5052142;28;20200;-79
2022/12/10 00:49:37;;;;;;;0.50;0.50;;;-0.20;99.90;;;;;;5049865;28;20204;-79
2022/12/10 00:52:04;;;;;;;0.70;0.70;;;-0.30;99.90;;;;;;5051958;28;20280;-79
2022/12/10 00:54:30;;;;;;;0.50;0.50;;;-0.40;99.90;;;;;;5050277;28;20292;-79
2022/12/10 00:56:57;;;;;;;0.50;0.40;;;-0.50;99.90;;;;;;5051340;28;20697;-77
2022/12/10 00:59:24;;;;;;;0.50;0.50;;;-0.60;99.90;;;;;;5051591;28;20216;-80
2022/12/10 01:01:51;;;;;;;0.50;0.40;;;-0.80;99.90;;;;;;5051278;28;20671;-79
2022/12/10 01:04:19;;;;;;;0.50;0.40;;;-0.80;99.90;;;;;;5050286;28;20301;-79
2022/12/10 01:06:48;;;;;;;0.50;0.40;;;-0.80;99.90;;;;;;5051078;28;20187;-76
2022/12/10 01:09:17;;;;;;;0.50;0.40;;;-0.80;99.90;;;;;;5051813;28;20644;-81
2022/12/10 01:11:45;;;;;;;1.35;1.33;;;-0.70;99.90;;;;;;5050875;28;20193;-78
2022/12/10 01:14:17;;;;;;;0.50;0.50;;;-0.80;99.90;;;;;;5050604;28;20776;-79
2022/12/10 01:16:44;;;;;;;0.50;0.50;;;-0.70;99.90;;;;;;5052176;28;20194;-79
2022/12/10 01:19:11;;;;;;;0.50;0.45;;;-0.80;99.90;;;;;;5053951;28;20782;-78
2022/12/10 01:21:39;;;;;;;0.50;0.40;;;-0.90;99.90;;;;;;5055241;28;20288;-79
2022/12/10 01:24:07;;;;;;;1.50;1.48;;;-1.00;99.90;;;;;;5054591;28;20297;-79
2022/12/10 01:26:36;;;;;;;1.60;1.50;;;-0.80;99.90;;;;;;5054861;28;20288;-80
2022/12/10 01:29:04;;;;;;;3.10;2.83;;;-0.60;99.90;;;;;;5055409;28;20541;-79
2022/12/10 01:31:33;;;;;;;0.50;0.40;;;-0.50;99.90;;;;;;5055159;28;20218;-77
2022/12/10 01:34:01;;;;;;;0.50;0.40;;;-0.50;99.90;;;;;;5054351;28;20204;-80
2022/12/10 01:36:30;;;;;;;0.50;0.40;;;-0.50;99.90;;;;;;5054894;28;20193;-78
2022/12/10 01:39:00;;;;;;;0.50;0.40;;;-0.50;99.90;;;;;;5054599;28;20209;-75
2022/12/10 01:41:30;;;;;;;0.50;0.40;;;-0.50;99.90;;;;;;5055234;28;20213;-80
2022/12/10 01:43:59;;;;;;;0.50;0.43;;;-0.40;99.90;;;;;;5054388;28;20644;-79
2022/12/10 01:46:28;;;;;;;0.65;0.65;;;-0.30;99.90;;;;;;5054758;28;20289;-79
2022/12/10 01:48:55;;;;;;;0.50;0.40;;;-0.20;99.90;;;;;;5054928;28;20280;-78
2022/12/10 01:51:24;;;;;;;0.70;0.70;;;-0.30;99.90;;;;;;5055238;28;20198;-78
2022/12/10 01:53:51;;;;;;;0.60;0.60;;;-0.30;99.90;;;;;;5054669;28;20223;-77
2022/12/10 01:56:21;;;;;;;0.50;0.40;;;-0.30;99.90;;;;;;5054860;28;20555;-77
2022/12/10 01:58:49;;;;;;;0.50;0.40;;;-0.20;99.90;;;;;;5054476;28;20209;-77
2022/12/10 02:01:26;;;;;;;0.50;0.40;;;-0.30;99.90;;;;;;5054370;28;20193;-78
2022/12/10 02:04:02;;;;;;;0.68;0.68;;;-0.30;99.90;;;;;;5054048;28;20184;-81
2022/12/10 02:06:45;;;;;;;0.50;0.40;;;-0.40;99.90;;;;;;5054477;28;20497;-78
2022/12/10 02:09:20;;;;;;;0.50;0.40;;;-0.40;99.90;;;;;;5054902;28;20265;-78
2022/12/10 02:11:58;;;;;;;0.60;0.60;;;-0.40;99.90;;;;;;5054229;28;20197;-80
2022/12/10 02:14:30;;;;;;;4.22;3.45;;;-0.40;99.90;;;;;;5039591;22;20317;-75
2022/12/10 02:17:03;;;;;;;0.50;0.50;;;-0.20;99.90;;;;;;5022839;28;20293;-76
2022/12/10 02:19:44;;;;;;;1.27;1.20;;;-0.20;99.90;;;;;;5030604;28;20292;-76
2022/12/10 02:22:13;;;;;;;0.50;0.40;;;-0.20;99.90;;;;;;5033832;28;20328;-75
2022/12/10 02:24:40;;;;;;;0.50;0.40;;;-0.30;99.90;;;;;;5033142;28;20211;-75
2022/12/10 02:27:15;;;;;;;1.15;1.15;;;-0.40;99.90;;;;;;5031662;28;20735;-75
2022/12/10 02:29:46;;;;;;;0.50;0.40;;;-0.30;99.90;;;;;;5033957;28;20240;-76
2022/12/10 02:32:17;;;;;;;0.50;0.40;;;-0.30;99.90;;;;;;5033855;28;20615;-75
2022/12/10 02:34:48;;;;;;;0.50;0.40;;;-0.30;99.90;;;;;;5032753;28;20224;-75
2022/12/10 02:37:19;;;;;;;21.98;19.02;;;-0.30;99.90;;;;;;5029734;28;20250;-76
2022/12/10 02:39:50;;;;;;;0.50;0.40;;;-0.30;99.90;;;;;;5024455;28;20209;-75
2022/12/10 02:42:18;;;;;;;0.50;0.40;;;-0.30;99.90;;;;;;5033176;28;20183;-75
2022/12/10 02:44:48;;;;;;;0.50;0.40;;;-0.30;99.90;;;;;;5025552;28;20325;-75
2022/12/10 02:47:17;;;;;;;0.50;0.40;;;-0.20;99.90;;;;;;5027586;28;20202;-75
2022/12/10 02:49:46;;;;;;;3.90;3.60;;;-0.20;99.90;;;;;;5033821;28;20340;-76
2022/12/10 02:52:15;;;;;;;0.50;0.40;;;-0.30;99.90;;;;;;5033848;28;20281;-75
2022/12/10 02:54:45;;;;;;;0.50;0.40;;;-0.30;99.90;;;;;;5032547;28;20576;-75
2022/12/10 02:57:27;;;;;;;1.08;0.98;;;-0.30;99.90;;;;;;5033590;28;20249;-75
2022/12/10 03:00:09;;;;;;;0.70;0.70;;;-0.20;99.90;;;;;;5032806;28;20214;-75
2022/12/10 03:02:44;;;;;;;0.50;0.40;;;-0.10;99.90;;;;;;5019883;28;20228;-76
2022/12/10 03:05:19;;;;;;;0.50;0.40;;;-0.10;99.90;;;;;;5032236;28;20217;-75
2022/12/10 03:07:51;;;;;;;0.50;0.40;;;0.00;99.90;;;;;;5032714;28;20194;-75
2022/12/10 03:10:24;;;;;;;1.23;0.95;;;0.00;99.90;;;;;;5032555;28;20241;-75
2022/12/10 03:12:56;;;;;;;0.50;0.50;;;0.10;99.90;;;;;;5032801;28;20241;-75
2022/12/10 03:15:26;;;;;;;0.50;0.40;;;0.10;99.90;;;;;;5023893;28;20661;-75
2022/12/10 03:17:54;;;;;;;0.50;0.40;;;0.10;99.90;;;;;;5033088;28;20214;-75
2022/12/10 03:20:24;;;;;;;0.50;0.40;;;0.20;99.90;;;;;;5032425;28;20850;-75
2022/12/10 03:22:51;;;;;;;3.63;1.77;;;0.20;99.90;;;;;;5033031;28;20703;-75
2022/12/10 03:25:22;;;;;;;3.72;3.53;;;0.30;99.90;;;;;;5032293;28;20222;-75
2022/12/10 03:27:52;;;;;;;0.52;0.50;;;0.30;99.90;;;;;;5031830;28;20286;-75
2022/12/10 03:30:19;;;;;;;0.50;0.40;;;0.40;99.90;;;;;;5032965;28;20553;-75
2022/12/10 03:32:47;;;;;;;0.50;0.50;;;0.30;99.90;;;;;;5032429;28;20297;-75
2022/12/10 03:35:17;;;;;;;0.50;0.40;;;0.30;99.90;;;;;;5016111;28;20303;-75
2022/12/10 03:37:44;;;;;;;0.50;0.40;;;0.20;99.90;;;;;;5016192;28;20856;-75
2022/12/10 03:40:13;;;;;;;0.50;0.40;;;0.10;99.90;;;;;;5030747;28;20580;-75
2022/12/10 03:42:40;;;;;;;0.50;0.40;;;0.10;99.90;;;;;;5032310;28;20294;-75
2022/12/10 03:45:08;;;;;;;0.50;0.40;;;0.10;99.90;;;;;;5023422;28;20195;-75
2022/12/10 03:47:35;;;;;;;0.50;0.40;;;0.10;99.90;;;;;;5015403;28;20199;-75
2022/12/10 03:50:04;;;;;;;0.50;0.50;;;0.10;99.90;;;;;;5032004;28;20551;-75
2022/12/10 03:52:31;;;;;;;0.50;0.40;;;0.20;99.90;;;;;;5032143;28;20774;-75
2022/12/10 03:54:57;;;;;;;0.50;0.40;;;0.20;99.90;;;;;;5030952;28;20196;-75
2022/12/10 03:57:24;;;;;;;1.35;0.93;;;0.30;99.90;;;;;;5032141;28;20204;-75
2022/12/10 03:59:51;;;;;;;1.05;1.05;;;0.20;99.90;;;;;;5031795;28;20228;-75
2022/12/10 04:02:18;;;;;;;1.35;1.30;;;0.30;99.90;;;;;;5017394;28;20225;-75
2022/12/10 04:04:45;;;;;;;1.15;1.15;;;0.30;99.90;;;;;;5030221;28;20215;-76
2022/12/10 04:07:13;;;;;;;0.50;0.43;;;0.30;99.90;;;;;;5032227;28;20226;-75
2022/12/10 04:09:40;;;;;;;1.30;1.30;;;0.40;99.90;;;;;;5031508;28;21033;-75
2022/12/10 04:12:07;;;;;;;0.50;0.50;;;0.40;99.90;;;;;;5031826;28;20273;-75
2022/12/10 04:17:19;;;;;;;1.40;1.40;;;0.30;99.90;;;;;;5017042;28;20225;-75
2022/12/10 04:19:45;;;;;;;0.50;0.43;;;0.20;99.90;;;;;;5023469;28;20306;-75
2022/12/10 04:27:42;;;;;;;1.17;1.17;;;0.10;99.90;;;;;;5031224;28;20675;-75
2022/12/10 04:30:12;;;;;;;2.95;2.80;;;0.10;99.90;;;;;;5030817;28;20183;-75
2022/12/10 04:32:39;;;;;;;0.80;0.80;;;0.00;99.90;;;;;;5031729;28;20201;-76
2022/12/10 04:35:07;;;;;;;0.50;0.50;;;0.00;99.90;;;;;;5030210;28;20717;-75
2022/12/10 04:37:35;;;;;;;9.93;8.95;;;0.00;99.90;;;;;;5030460;28;20643;-76
2022/12/10 04:40:03;;;;;;;2.40;2.33;;;0.00;99.90;;;;;;5020047;28;20313;-75
2022/12/10 04:42:29;;;;;;;0.60;0.60;;;-0.10;99.90;;;;;;5031328;28;20191;-75
2022/12/10 04:44:56;;;;;;;2.78;1.95;;;-0.20;99.90;;;;;;5025845;28;20201;-76
2022/12/10 04:47:23;;;;;;;4.13;3.80;;;-0.30;99.90;;;;;;5019342;28;20619;-76
2022/12/10 04:49:50;;;;;;;0.50;0.50;;;-0.40;99.90;;;;;;5030938;28;20278;-76
2022/12/10 04:52:17;;;;;;;2.33;1.95;;;-0.50;99.90;;;;;;5030053;28;20195;-75
2022/12/10 04:54:46;;;;;;;0.60;0.60;;;-0.60;99.90;;;;;;5030576;28;20214;-75
2022/12/10 04:57:13;;;;;;;2.00;1.88;;;-0.60;99.90;;;;;;5019059;28;20198;-75
2022/12/10 04:59:40;;;;;;;3.65;3.33;;;-0.70;99.90;;;;;;5019915;28;20302;-75
2022/12/10 05:02:08;;;;;;;0.50;0.40;;;-0.70;99.90;;;;;;5020805;28;20618;-75
2022/12/10 05:04:34;;;;;;;4.70;4.32;;;-0.70;99.90;;;;;;5025669;28;20217;-75
2022/12/10 05:07:01;;;;;;;4.43;2.90;;;-0.80;99.90;;;;;;5016126;28;20485;-75
2022/12/10 05:09:28;;;;;;;3.90;3.60;;;-0.80;99.90;;;;;;5030623;28;20191;-75
2022/12/10 05:11:56;;;;;;;4.10;4.00;;;-0.80;99.90;;;;;;5031062;28;20205;-75
2022/12/10 05:14:23;;;;;;;0.73;0.73;;;-0.80;99.90;;;;;;5022466;28;20575;-75
2022/12/10 05:16:51;;;;;;;3.35;1.88;;;-0.90;99.90;;;;;;5026960;28;20198;-76
2022/12/10 05:19:19;;;;;;;6.93;6.28;;;-1.00;99.90;;;;;;5030982;28;20249;-76
2022/12/10 05:24:30;;;;;;;1.77;1.67;;;-0.90;99.90;;;;;;5038655;28;20226;-77
2022/12/10 05:26:59;;;;;;;3.00;2.80;;;-1.00;99.90;;;;;;5051280;28;20235;-76
2022/12/10 05:29:26;;;;;;;0.82;0.82;;;-1.00;99.90;;;;;;5037244;28;20274;-76
2022/12/10 05:31:53;;;;;;;2.13;2.00;;;-1.00;99.90;;;;;;5033830;28;20206;-75
2022/12/10 05:34:19;;;;;;;3.10;2.85;;;-1.00;99.90;;;;;;5028671;28;20215;-76
2022/12/10 05:36:46;;;;;;;5.97;5.45;;;-0.90;99.90;;;;;;5041565;28;20196;-75
2022/12/10 05:39:13;;;;;;;0.88;0.88;;;-1.00;99.90;;;;;;5050900;28;20224;-75
2022/12/10 05:41:41;;;;;;;3.75;3.42;;;-1.00;99.90;;;;;;5051036;28;20296;-74
2022/12/10 05:44:10;;;;;;;0.95;0.95;;;-1.10;99.90;;;;;;5033080;28;20581;-75
2022/12/10 05:46:38;;;;;;;1.30;1.30;;;-1.10;99.90;;;;;;5019187;28;20277;-74
2022/12/10 05:49:06;;;;;;;6.68;3.90;;;-1.10;99.90;;;;;;5010225;28;20283;-75
2022/12/10 05:51:35;;;;;;;9.48;5.22;;;-1.10;99.90;;;;;;5010953;28;20234;-75
2022/12/10 05:54:03;;;;;;;0.50;0.40;;;-1.00;99.90;;;;;;5016244;28;20223;-75
2022/12/10 05:56:30;;;;;;;5.65;4.93;;;-1.10;99.90;;;;;;5014243;28;20218;-75
2022/12/10 05:59:00;;;;;;;8.23;7.30;;;-1.10;99.90;;;;;;5013689;28;20279;-75
2022/12/10 06:01:30;;;;;;;0.60;0.60;;;-1.20;99.90;;;;;;5011463;28;20230;-75
2022/12/10 06:03:58;;;;;;;3.67;3.47;;;-1.10;99.90;;;;;;5013182;28;20303;-75
2022/12/10 06:06:27;;;;;;;4.60;3.90;;;-1.10;99.90;;;;;;5014835;28;20249;-75
2022/12/10 06:08:54;;;;;;;6.75;5.53;;;-1.00;99.90;;;;;;5015000;28;20209;-75
2022/12/10 06:11:21;;;;;;;0.55;0.55;;;-1.00;99.90;;;;;;5014484;28;20684;-75
2022/12/10 06:13:48;;;;;;;1.00;1.00;;;-1.00;99.90;;;;;;5019109;28;20234;-74
2022/12/10 06:16:16;;;;;;;1.90;1.10;;;-0.90;99.90;;;;;;5022150;28;20199;-74
2022/12/10 06:18:44;;;;;;;7.40;4.32;;;-0.90;99.90;;;;;;5014735;28;20810;-75
2022/12/10 06:21:14;;;;;;;2.80;2.60;;;-0.80;99.90;;;;;;5014606;28;20310;-75
2022/12/10 06:23:42;;;;;;;3.20;2.95;;;-0.80;99.90;;;;;;5014161;28;20678;-75
2022/12/10 06:26:11;;;;;;;4.30;3.80;;;-0.80;99.90;;;;;;5013869;28;20748;-75
2022/12/10 06:28:38;;;;;;;3.90;3.70;;;-0.80;99.90;;;;;;5013993;28;20195;-74
2022/12/10 06:31:06;;;;;;;13.98;8.75;;;-0.80;99.90;;;;;;5014283;28;20254;-75
2022/12/10 06:33:33;;;;;;;6.35;1.88;;;-0.80;99.90;;;;;;5013915;28;20212;-74
2022/12/10 06:36:05;;;;;;;11.13;6.20;;;-0.90;99.90;;;;;;5011868;28;20290;-75
2022/12/10 06:38:32;;;;;;;9.15;5.15;;;-0.90;99.90;;;;;;5014300;28;20188;-74
2022/12/10 06:40:59;;;;;;;6.28;5.65;;;-0.90;99.90;;;;;;5014204;28;20222;-75
2022/12/10 06:43:29;;;;;;;18.38;5.50;;;-0.90;99.90;;;;;;5019149;28;20215;-74
2022/12/10 06:45:56;;;;;;;10.73;9.88;;;-0.90;99.90;;;;;;5021390;28;20197;-74
2022/12/10 06:48:23;;;;;;;20.80;12.05;;;-0.90;99.90;;;;;;5013865;28;20207;-74
2022/12/10 06:50:50;;;;;;;13.48;6.88;;;-0.80;99.90;;;;;;5014152;28;20284;-75
2022/12/10 06:53:18;;;;;;;28.38;7.85;;;-0.80;99.90;;;;;;5013962;28;20304;-75
2022/12/10 06:55:44;;;;;;;29.05;10.18;;;-0.80;99.90;;;;;;5013185;28;20569;-74
2022/12/10 06:58:11;;;;;;;22.83;9.07;;;-0.80;99.90;;;;;;5013790;28;20194;-75
2022/12/10 07:00:38;;;;;;;5.22;4.80;;;-0.80;99.90;;;;;;5013523;28;20309;-74
2022/12/10 07:03:05;;;;;;;6.80;6.15;;;-0.70;99.90;;;;;;5013419;28;20226;-75
2022/12/10 07:05:32;;;;;;;9.27;6.15;;;-0.70;99.90;;;;;;5012456;28;20293;-74
2022/12/10 07:07:59;;;;;;;9.73;9.13;;;-0.70;99.90;;;;;;5013711;28;20202;-75
2022/12/10 07:10:27;;;;;;;1.33;1.23;;;-0.60;99.90;;;;;;5013577;28;20625;-75
2022/12/10 07:12:54;;;;;;;14.05;5.93;;;-0.50;99.90;;;;;;5014272;28;20236;-75
2022/12/10 07:15:22;;;;;;;10.40;5.38;;;-0.50;99.90;;;;;;5023252;28;20273;-75
2022/12/10 07:17:51;;;;;;;16.60;10.27;;;-0.50;99.90;;;;;;5013880;28;20213;-73
2022/12/10 07:20:18;;;;;;;21.75;10.43;;;-0.50;99.90;;;;;;5013023;28;20217;-73
2022/12/10 07:22:45;;;;;;;6.18;5.70;;;-0.50;99.90;;;;;;5013265;28;20223;-73
2022/12/10 07:25:11;;;;;;;19.48;12.93;;;-0.50;99.90;;;;;;5012315;28;20282;-73
2022/12/10 07:27:40;;;;;;;16.40;14.25;;;-0.50;99.90;;;;;;5013319;28;20768;-73
2022/12/10 07:30:07;;;;;;;21.42;15.70;;;-0.50;99.90;;;;;;5012702;28;20196;-75
2022/12/10 07:32:34;;;;;;;2.50;2.40;;;-0.50;99.90;;;;;;5013193;28;20226;-73
2022/12/10 07:35:01;;;;;;;26.25;8.82;;;-0.50;99.90;;;;;;5010338;28;20643;-75
2022/12/10 07:37:28;;;;;;;45.35;21.35;;;-0.50;99.90;;;;;;5013096;28;20210;-73
2022/12/10 07:39:55;;;;;;;3.90;1.67;;;-0.50;99.90;;;;;;5012725;28;20226;-73
2022/12/10 07:42:21;;;;;;;0.50;0.47;;;-0.50;99.90;;;;;;5013379;28;20204;-73
2022/12/10 07:44:50;;;;;;;11.23;10.05;;;-0.40;99.90;;;;;;5019958;28;20709;-73
2022/12/10 07:47:17;;;;;;;19.25;14.43;;;-0.40;99.90;;;;;;5017951;28;20674;-73
2022/12/10 07:49:43;;;;;;;17.40;11.68;;;-0.30;99.90;;;;;;5012914;28;20222;-73
2022/12/10 07:52:10;;;;;;;24.20;11.85;;;-0.40;99.90;;;;;;5015038;28;20333;-73
2022/12/10 07:54:37;;;;;;;13.43;8.43;;;-0.40;99.90;;;;;;5021663;28;20302;-73
2022/12/10 07:57:04;;;;;;;11.52;10.27;;;-0.40;99.90;;;;;;5012543;28;20634;-73
2022/12/10 07:59:31;;;;;;;17.10;4.35;;;-0.40;99.90;;;;;;5011994;28;20202;-73
2022/12/10 08:01:59;;;;;;;8.48;5.40;;;-0.40;99.90;;;;;;5012573;28;20195;-73
2022/12/10 08:04:29;;;;;;;3.67;3.35;;;-0.30;99.90;;;;;;5011891;28;20303;-73
2022/12/10 08:06:56;;;;;;;2.78;2.67;;;-0.30;99.90;;;;;;5011968;28;20727;-73
2022/12/10 08:09:23;;;;;;;6.35;4.40;;;-0.30;99.90;;;;;;5012482;28;20228;-73
2022/12/10 08:11:50;;;;;;;5.60;5.38;;;-0.30;99.90;;;;;;5012632;28;20289;-74
2022/12/10 08:14:17;;;;;;;2.58;2.38;;;-0.30;99.90;;;;;;5062287;22;20228;-76
2022/12/10 08:16:44;;;;;;;0.70;0.70;;;-0.20;99.90;;;;;;5092491;28;20193;-78
2022/12/10 08:19:12;;;;;;;4.45;3.65;;;-0.10;99.90;;;;;;5092497;28;20200;-77
2022/12/10 08:21:39;;;;;;;2.03;1.20;;;-0.10;99.90;;;;;;5092077;28;20232;-77
2022/12/10 08:24:06;;;;;;;18.92;5.97;;;-0.10;99.90;;;;;;5091912;28;20238;-77
2022/12/10 08:26:34;;;;;;;12.85;10.15;;;-0.10;99.90;;;;;;5092228;28;20235;-80
2022/12/10 08:29:01;;;;;;;0.60;0.60;;;-0.10;99.90;;;;;;5090853;28;20231;-78
2022/12/10 08:31:29;;;;;;;4.15;3.83;;;-0.10;99.90;;;;;;5092268;28;20277;-78
2022/12/10 08:33:56;;;;;;;20.00;2.25;;;-0.10;99.90;;;;;;5091085;28;20216;-78
2022/12/10 08:36:24;;;;;;;1.20;1.20;;;-0.10;99.90;;;;;;5092254;28;20569;-78
2022/12/10 08:38:51;;;;;;;2.78;2.58;;;0.00;99.90;;;;;;5090458;28;20284;-78
2022/12/10 08:41:20;;;;;;;20.40;14.43;;;0.00;99.90;;;;;;5092077;28;20307;-80
2022/12/10 08:43:47;;;;;;;17.75;10.52;;;0.00;99.90;;;;;;5093761;28;20217;-76
2022/12/10 08:46:14;;;;;;;3.83;3.65;;;0.00;99.90;;;;;;5103155;28;20257;-77
2022/12/10 08:48:42;;;;;;;15.38;10.35;;;-0.10;99.90;;;;;;5112663;28;20279;-78
2022/12/10 08:51:12;;;;;;;7.43;6.40;;;-0.10;99.90;;;;;;5112138;28;20282;-79
2022/12/10 08:53:40;;;;;;;3.13;3.00;;;-0.10;99.90;;;;;;5112403;28;20226;-78
2022/12/10 08:56:07;;;;;;;10.73;9.60;;;-0.10;99.90;;;;;;5111324;28;20198;-79
2022/12/10 08:58:34;;;;;;;1.02;1.02;;;0.00;99.90;;;;;;5112013;28;20695;-77
2022/12/10 09:01:07;;;;;;;1.55;1.45;;;-0.20;99.90;;;;;;5111825;28;20558;-79
2022/12/10 09:03:34;;;;;;;7.88;6.15;;;-0.20;99.90;;;;;;5112629;28;20219;-78
2022/12/10 09:06:03;;;;;;;30.73;7.68;;;-0.20;99.90;;;;;;5111044;28;20194;-78
2022/12/10 09:08:30;;;;;;;2.10;2.00;;;-0.20;99.90;;;;;;5112563;28;20189;-78
2022/12/10 09:10:58;;;;;;;22.95;15.98;;;-0.20;99.90;;;;;;5112233;28;20190;-78
2022/12/10 09:13:25;;;;;;;2.35;2.28;;;-0.20;99.90;;;;;;5110158;28;20219;-77
2022/12/10 09:15:53;;;;;;;13.00;8.77;;;-0.20;99.90;;;;;;5101873;28;20194;-80
2022/12/10 09:18:20;;;;;;;4.93;1.50;;;-0.10;99.90;;;;;;5112271;28;20657;-78
2022/12/10 09:20:47;;;;;;;0.85;0.85;;;-0.10;99.90;;;;;;5111805;28;21003;-77
2022/12/10 09:23:13;;;;;;;1.75;1.67;;;0.00;99.90;;;;;;5112376;28;20193;-78
2022/12/10 09:25:40;;;;;;;10.00;6.82;;;0.00;99.90;;;;;;5111026;28;20280;-76
2022/12/10 09:28:09;;;;;;;3.83;3.53;;;0.00;99.90;;;;;;5111475;28;20557;-76
2022/12/10 09:30:35;;;;;;;5.80;4.70;;;0.00;99.90;;;;;;5111671;28;20188;-78
2022/12/10 09:33:02;;;;;;;5.38;4.22;;;0.00;99.90;;;;;;5112235;28;20287;-77
2022/12/10 09:35:29;;;;;;;0.50;0.45;;;0.10;99.90;;;;;;5111046;28;20758;-77
2022/12/10 09:37:56;;;;;;;0.50;0.50;;;0.10;99.90;;;;;;5113208;28;20232;-78
2022/12/10 09:40:30;;;;;;;26.35;5.47;;;-0.10;99.90;;;;;;5114140;28;20218;-78
2022/12/10 09:43:01;;;;;;;0.50;0.40;;;0.00;99.90;;;;;;5116085;28;20181;-78
2022/12/10 09:45:35;;;;;;;27.00;13.02;;;0.00;99.90;;;;;;5104465;28;20297;-79
2022/12/10 09:48:11;;;;;;;9.20;3.90;;;0.00;99.90;;;;;;5115676;28;20182;-77
2022/12/10 09:50:49;;;;;;;1.15;1.05;;;0.00;99.90;;;;;;5115636;28;20656;-77
2022/12/10 09:53:20;;;;;;;2.85;2.70;;;0.00;99.90;;;;;;5115457;28;20196;-78
2022/12/10 09:55:48;;;;;;;0.50;0.50;;;0.00;99.90;;;;;;5115042;28;20268;-79
2022/12/10 09:58:20;;;;;;;22.77;9.52;;;0.00;99.90;;;;;;5115660;28;20721;-78
2022/12/10 10:00:52;;;;;;;8.27;7.60;;;0.10;99.90;;;;;;5115516;28;20210;-76
2022/12/10 10:03:19;;;;;;;23.48;6.50;;;0.00;99.90;;;;;;5115434;28;20231;-78
2022/12/10 10:05:49;;;;;;;35.33;8.35;;;-0.10;99.90;;;;;;5114901;28;20195;-78
2022/12/10 10:08:30;;;;;;;10.77;9.57;;;-0.20;99.90;;;;;;5115300;28;20191;-78
2022/12/10 10:10:57;;;;;;;2.55;2.35;;;-0.40;99.90;;;;;;5115191;28;20173;-77
2022/12/10 10:13:32;;;;;;;5.80;4.70;;;-0.50;99.90;;;;;;5113634;28;20212;-80
2022/12/10 10:16:14;;;;;;;4.95;2.45;;;-0.50;99.90;;;;;;5095019;28;20179;-76
2022/12/10 10:18:44;;;;;;;2.78;2.65;;;-0.60;99.90;;;;;;5094499;28;20193;-78
2022/12/10 10:21:19;;;;;;;6.85;6.15;;;-0.50;99.90;;;;;;5094269;28;20213;-73
2022/12/10 10:23:46;;;;;;;24.58;10.52;;;-0.50;99.90;;;;;;5094193;28;20239;-76
2022/12/10 10:26:13;;;;;;;5.88;4.97;;;-0.40;99.90;;;;;;5093885;28;20196;-77
2022/12/10 10:28:41;;;;;;;6.07;5.55;;;-0.40;99.90;;;;;;5094076;28;20231;-76
2022/12/10 10:31:20;;;;;;;3.08;2.85;;;-0.30;99.90;;;;;;5094433;28;20665;-77
2022/12/10 10:33:56;;;;;;;4.45;2.15;;;-0.30;99.90;;;;;;5093807;28;20659;-76
2022/12/10 10:36:25;;;;;;;3.90;3.05;;;-0.40;99.90;;;;;;5094021;28;20197;-77
2022/12/10 10:38:52;;;;;;;11.48;8.02;;;-0.40;99.90;;;;;;5092566;28;20200;-78
2022/12/10 10:41:19;;;;;;;5.57;5.18;;;-0.40;99.90;;;;;;5094394;28;20210;-78
2022/12/10 10:43:47;;;;;;;5.65;5.20;;;-0.40;99.90;;;;;;5095936;28;20307;-77
2022/12/10 10:46:16;;;;;;;1.05;1.05;;;-0.30;99.90;;;;;;5105561;28;20187;-78
2022/12/10 10:48:45;;;;;;;3.63;3.45;;;-0.30;99.90;;;;;;5113574;28;20228;-78
2022/12/10 10:51:20;;;;;;;2.33;2.22;;;-0.30;99.90;;;;;;5114147;28;20278;-74
2022/12/10 10:53:49;;;;;;;22.33;13.57;;;-0.30;99.90;;;;;;5114846;28;20223;-78
2022/12/10 10:56:20;;;;;;;2.45;2.35;;;-0.30;99.90;;;;;;5113816;28;20218;-77
2022/12/10 10:58:55;;;;;;;14.20;5.90;;;-0.40;99.90;;;;;;5114331;28;20233;-79
2022/12/10 11:01:25;;;;;;;45.42;16.63;;;-0.30;99.90;;;;;;5114047;28;20283;-78
2022/12/10 11:03:56;;;;;;;11.25;6.80;;;-0.30;99.90;;;;;;5114566;28;20219;-80
2022/12/10 11:06:24;;;;;;;28.33;11.65;;;-0.30;99.90;;;;;;5114572;28;20265;-76
2022/12/10 11:08:55;;;;;;;27.35;10.43;;;-0.30;99.90;;;;;;5114138;28;20290;-77
2022/12/10 11:11:31;;;;;;;31.85;15.63;;;-0.30;99.90;;;;;;5113968;28;20211;-78
2022/12/10 11:14:15;;;;;;;21.25;11.55;;;-0.20;99.90;;;;;;5111231;28;20224;-77
2022/12/10 11:16:42;;;;;;;10.75;8.57;;;-0.20;99.90;;;;;;5105615;28;20183;-77
2022/12/10 11:19:22;;;;;;;4.15;3.30;;;-0.30;99.90;;;;;;5114183;28;20196;-73
2022/12/10 11:21:49;;;;;;;4.50;3.15;;;-0.20;99.90;;;;;;5113593;28;20242;-79
2022/12/10 11:24:19;;;;;;;6.28;3.80;;;-0.10;99.90;;;;;;5112922;28;20220;-77
2022/12/10 11:27:03;;;;;;;8.45;7.45;;;-0.10;99.90;;;;;;5114166;28;20285;-77
2022/12/10 11:29:54;;;;;;;13.98;8.73;;;-0.20;99.90;;;;;;5113824;28;20266;-74
2022/12/10 11:32:39;;;;;;;3.25;3.00;;;-0.20;99.90;;;;;;5113923;28;20610;-77
2022/12/10 11:35:14;;;;;;;13.77;8.45;;;-0.10;99.90;;;;;;5112811;28;20777;-78
2022/12/10 11:37:50;;;;;;;12.05;7.50;;;-0.10;99.90;;;;;;5113670;28;20205;-78
2022/12/10 11:40:38;;;;;;;20.80;9.02;;;0.00;99.90;;;;;;5112246;28;20277;-77
2022/12/10 11:43:24;;;;;;;18.55;4.90;;;0.00;99.90;;;;;;5113447;28;20278;-77
2022/12/10 11:46:02;;;;;;;2.90;2.40;;;0.10;99.90;;;;;;5103578;28;20275;-76
2022/12/10 11:48:48;;;;;;;14.25;4.60;;;0.10;99.90;;;;;;5113162;28;20219;-78
2022/12/10 11:51:26;;;;;;;0.70;0.70;;;0.10;99.90;;;;;;5113556;28;20171;-78
2022/12/10 11:54:05;;;;;;;6.38;4.05;;;0.10;99.90;;;;;;5112743;28;20265;-75
2022/12/10 11:56:37;;;;;;;0.70;0.70;;;0.00;99.90;;;;;;5113181;28;20223;-77
2022/12/10 11:59:12;;;;;;;5.15;4.55;;;0.10;99.90;;;;;;5112713;28;20173;-78
2022/12/10 12:02:00;;;;;;;11.35;5.43;;;0.20;99.90;;;;;;5112867;28;20290;-77
2022/12/10 12:04:40;;;;;;;2.58;2.15;;;0.20;99.90;;;;;;5112410;28;20251;-78
2022/12/10 12:07:33;;;;;;;6.57;4.15;;;0.20;99.90;;;;;;5112650;28;20780;-73
2022/12/10 12:10:33;;;;;;;0.52;0.52;;;0.20;99.90;;;;;;5113108;28;20203;-77
2022/12/10 12:13:05;;;;;;;0.50;0.50;;;0.30;99.90;;;;;;5068267;28;20205;-78
2022/12/10 12:15:36;;;;;;;7.22;6.63;;;0.30;99.90;;;;;;5100871;28;20232;-78
2022/12/10 12:18:07;;;;;;;2.40;1.33;;;0.40;99.90;;;;;;5112401;28;20266;-78
2022/12/10 12:20:38;;;;;;;0.65;0.65;;;0.40;99.90;;;;;;5112499;28;20218;-77
2022/12/10 12:23:15;;;;;;;0.82;0.82;;;0.40;99.90;;;;;;5112782;28;20180;-78
2022/12/10 12:25:47;;;;;;;4.78;1.85;;;0.40;99.90;;;;;;5111658;28;20282;-77
2022/12/10 12:28:20;;;;;;;1.35;1.35;;;0.50;99.90;;;;;;5112029;28;20313;-77
2022/12/10 12:30:52;;;;;;;4.20;3.80;;;0.50;99.90;;;;;;5112219;28;20610;-78
2022/12/10 12:33:33;;;;;;;3.63;3.42;;;0.50;99.90;;;;;;5112467;28;20519;-77
2022/12/10 12:36:07;;;;;;;12.75;10.30;;;0.50;99.90;;;;;;5112506;28;20184;-78
2022/12/10 12:38:46;;;;;;;9.02;4.03;;;0.50;99.90;;;;;;5110957;28;20222;-78
2022/12/10 12:41:17;;;;;;;2.92;2.30;;;0.40;99.90;;;;;;5112513;28;20225;-73
2022/12/10 12:43:52;;;;;;;20.33;6.82;;;0.40;99.90;;;;;;5110379;28;20330;-77
2022/12/10 12:46:26;;;;;;;3.90;2.08;;;0.50;99.90;;;;;;5103314;28;20286;-77
2022/12/10 12:48:58;;;;;;;10.68;5.25;;;0.50;99.90;;;;;;5111707;28;20287;-76
2022/12/10 12:51:30;;;;;;;0.55;0.55;;;0.50;99.90;;;;;;5112387;28;20278;-75
2022/12/10 12:53:58;;;;;;;2.97;2.88;;;0.50;99.90;;;;;;5111128;28;20225;-78
2022/12/10 12:56:41;;;;;;;0.50;0.40;;;0.60;99.90;;;;;;5112145;28;20292;-76
2022/12/10 12:59:20;;;;;;;1.20;1.20;;;0.60;99.90;;;;;;5111865;28;20214;-77
2022/12/10 13:01:52;;;;;;;7.22;6.47;;;0.60;99.90;;;;;;5112147;28;20221;-77
2022/12/10 13:04:19;;;;;;;0.50;0.50;;;0.70;99.90;;;;;;5111155;28;20327;-78
2022/12/10 13:07:26;;;;;;;0.75;0.75;;;0.70;99.90;;;;;;5111787;28;20195;-77
2022/12/10 13:10:23;;;;;;;2.55;2.15;;;0.70;99.90;;;;;;5111913;28;20196;-78
2022/12/10 13:12:52;;;;;;;5.03;1.88;;;0.70;99.90;;;;;;5111177;28;20599;-78